Time;durP1;ratioP1;P1;durP2;ratioP2;P2;SDS_P1;SDS_P2;PMS_P1;PMS_P2;Temp;Humidity;BMP_temperature;BMP_pressure;BME280_temperature;BME280_humidity;BME280_pressure;Samples;Min_cycle;Max_cycle;Signal;HPM_P1;HPM_P2
2022/11/23 00:01:19;;;;;;;10.27;6.25;;;8.60;99.90;;;;;;5072862;28;20051;-77
2022/11/23 00:03:47;;;;;;;11.88;6.70;;;8.60;99.90;;;;;;5091061;28;20024;-76
2022/11/23 00:06:13;;;;;;;10.18;5.57;;;8.70;99.90;;;;;;5091644;28;20091;-77
2022/11/23 00:08:38;;;;;;;13.43;5.60;;;8.70;99.90;;;;;;5090535;28;20490;-76
2022/11/23 00:11:04;;;;;;;12.00;5.32;;;8.70;99.90;;;;;;5091854;28;20028;-76
2022/11/23 00:13:30;;;;;;;14.23;5.72;;;8.60;99.90;;;;;;5091374;28;20031;-77
2022/11/23 00:15:56;;;;;;;10.65;4.88;;;8.70;99.90;;;;;;5090783;28;20456;-68
2022/11/23 00:18:21;;;;;;;11.77;5.38;;;8.70;99.90;;;;;;5091617;28;20542;-65
2022/11/23 00:20:47;;;;;;;10.65;5.13;;;8.70;99.90;;;;;;5090965;28;20020;-75
2022/11/23 00:23:12;;;;;;;11.00;5.93;;;8.70;99.90;;;;;;5090917;28;20107;-67
2022/11/23 00:25:38;;;;;;;13.43;6.18;;;8.70;99.90;;;;;;5091302;28;20475;-73
2022/11/23 00:28:04;;;;;;;9.60;5.38;;;8.70;99.90;;;;;;5073366;28;20020;-75
2022/11/23 00:30:29;;;;;;;7.95;4.60;;;8.70;99.90;;;;;;5072568;28;20548;-77
2022/11/23 00:32:55;;;;;;;9.85;4.75;;;8.70;99.90;;;;;;5091540;28;20034;-77
2022/11/23 00:35:21;;;;;;;7.78;4.53;;;8.80;99.90;;;;;;5091402;28;20021;-73
2022/11/23 00:37:47;;;;;;;11.05;6.20;;;8.80;99.90;;;;;;5090429;28;20043;-76
2022/11/23 00:40:13;;;;;;;13.10;6.57;;;8.80;99.90;;;;;;5092998;28;20355;-76
2022/11/23 00:42:38;;;;;;;17.65;8.00;;;8.80;99.90;;;;;;5094417;28;20098;-75
2022/11/23 00:45:04;;;;;;;13.48;7.47;;;8.80;99.90;;;;;;5094068;28;20072;-73
2022/11/23 00:47:30;;;;;;;15.77;6.25;;;8.80;99.90;;;;;;5084069;28;20035;-76
2022/11/23 00:49:56;;;;;;;11.90;6.22;;;8.80;99.90;;;;;;5074591;28;20023;-75
2022/11/23 00:52:22;;;;;;;12.57;5.82;;;8.80;99.90;;;;;;5073567;28;20043;-68
2022/11/23 00:54:47;;;;;;;11.95;6.70;;;8.80;99.90;;;;;;5074138;28;20020;-71
2022/11/23 00:57:13;;;;;;;9.50;5.28;;;8.80;99.90;;;;;;5074155;28;20380;-76
2022/11/23 00:59:38;;;;;;;11.63;5.80;;;8.80;99.90;;;;;;5073424;28;20051;-74
2022/11/23 01:02:04;;;;;;;14.07;6.30;;;8.80;99.90;;;;;;5074033;28;20078;-76
2022/11/23 01:04:30;;;;;;;11.82;6.32;;;8.80;99.90;;;;;;5073678;28;20017;-76
2022/11/23 01:06:56;;;;;;;14.65;6.93;;;8.80;99.90;;;;;;5074043;28;20496;-74
2022/11/23 01:09:25;;;;;;;10.27;6.28;;;8.80;99.90;;;;;;5074089;28;20063;-70
2022/11/23 01:11:51;;;;;;;9.50;6.22;;;8.80;99.90;;;;;;5073471;28;20126;-75
2022/11/23 01:14:17;;;;;;;15.02;6.60;;;8.80;99.90;;;;;;5073944;28;20025;-76
2022/11/23 01:16:43;;;;;;;15.07;7.40;;;8.80;99.90;;;;;;5073588;28;20193;-73
2022/11/23 01:19:15;;;;;;;11.68;7.63;;;8.80;99.90;;;;;;5073333;28;20021;-74
2022/11/23 01:21:41;;;;;;;11.77;7.70;;;8.80;99.90;;;;;;5073704;28;20031;-76
2022/11/23 01:24:09;;;;;;;18.17;8.60;;;8.90;99.90;;;;;;5073747;28;20029;-75
2022/11/23 01:26:34;;;;;;;14.10;6.72;;;8.80;99.90;;;;;;5072971;28;20020;-76
2022/11/23 01:29:00;;;;;;;18.08;7.53;;;8.90;99.90;;;;;;5055862;28;20469;-70
2022/11/23 01:31:26;;;;;;;13.75;6.82;;;8.90;99.90;;;;;;5055355;28;20055;-76
2022/11/23 01:33:56;;;;;;;13.13;7.05;;;8.90;99.90;;;;;;5073312;28;20123;-76
2022/11/23 01:36:25;;;;;;;14.20;7.35;;;8.90;99.90;;;;;;5073607;28;20036;-72
2022/11/23 01:38:51;;;;;;;15.55;7.68;;;8.90;99.90;;;;;;5073830;28;20024;-71
2022/11/23 01:41:35;;;;;;;14.70;7.07;;;8.90;99.90;;;;;;5055146;28;20033;-76
2022/11/23 01:44:25;;;;;;;13.25;7.03;;;8.90;99.90;;;;;;5073462;28;20498;-76
2022/11/23 01:46:51;;;;;;;13.83;6.37;;;9.00;99.90;;;;;;5072697;28;20025;-76
2022/11/23 01:49:17;;;;;;;12.35;6.35;;;9.00;99.90;;;;;;5073257;28;20349;-76
2022/11/23 01:51:47;;;;;;;12.05;6.43;;;9.00;99.90;;;;;;5072659;28;20287;-75
2022/11/23 01:54:28;;;;;;;15.25;6.43;;;9.00;99.90;;;;;;5072692;28;20477;-76
2022/11/23 01:56:59;;;;;;;16.67;6.55;;;9.00;99.90;;;;;;5073051;28;20063;-76
2022/11/23 01:59:26;;;;;;;12.05;7.07;;;9.00;99.90;;;;;;5072908;28;20016;-75
2022/11/23 02:01:52;;;;;;;15.13;6.63;;;9.00;99.90;;;;;;5072264;28;20029;-76
2022/11/23 02:04:23;;;;;;;9.98;5.65;;;9.00;99.90;;;;;;5073190;28;20098;-76
2022/11/23 02:06:49;;;;;;;16.33;6.80;;;9.00;99.90;;;;;;5054766;28;20021;-76
2022/11/23 02:09:15;;;;;;;11.60;5.88;;;9.10;99.90;;;;;;5072617;28;20095;-77
2022/11/23 02:11:41;;;;;;;10.73;6.05;;;9.10;99.90;;;;;;5054775;28;20816;-76
2022/11/23 02:14:08;;;;;;;14.55;6.60;;;9.10;99.90;;;;;;5072825;28;20021;-76
2022/11/23 02:16:35;;;;;;;14.90;6.18;;;9.10;99.90;;;;;;5071744;28;20048;-76
2022/11/23 02:19:00;;;;;;;16.33;5.97;;;9.10;99.90;;;;;;5072898;28;20020;-76
2022/11/23 02:21:27;;;;;;;16.00;6.03;;;9.10;99.90;;;;;;5072262;28;20028;-76
2022/11/23 02:24:02;;;;;;;15.48;6.35;;;9.10;99.90;;;;;;5054013;28;20028;-76
2022/11/23 02:26:31;;;;;;;11.43;5.72;;;9.10;99.90;;;;;;5072268;28;20036;-76
2022/11/23 02:28:59;;;;;;;10.52;5.55;;;9.10;99.90;;;;;;5072088;28;20021;-64
2022/11/23 02:31:25;;;;;;;9.45;5.45;;;9.10;99.90;;;;;;5072261;28;20032;-64
2022/11/23 02:33:50;;;;;;;8.25;5.35;;;9.10;99.90;;;;;;5054537;28;20039;-72
2022/11/23 02:36:35;;;;;;;10.48;5.63;;;9.10;99.90;;;;;;5072026;28;20388;-76
2022/11/23 02:39:10;;;;;;;10.68;5.55;;;9.10;99.90;;;;;;5072245;28;20020;-68
2022/11/23 02:41:42;;;;;;;11.13;4.88;;;9.00;99.90;;;;;;5071982;28;20028;-75
2022/11/23 02:44:17;;;;;;;10.27;4.22;;;9.00;99.90;;;;;;5071750;28;20021;-72
2022/11/23 02:46:42;;;;;;;10.73;4.78;;;9.10;99.90;;;;;;5053794;28;20836;-69
2022/11/23 02:49:08;;;;;;;9.93;4.68;;;9.10;99.90;;;;;;5087923;28;20025;-73
2022/11/23 02:51:33;;;;;;;11.77;5.72;;;9.10;99.90;;;;;;5071228;28;20028;-75
2022/11/23 02:53:59;;;;;;;13.95;5.07;;;9.10;99.90;;;;;;5072101;28;20028;-76
2022/11/23 02:56:25;;;;;;;10.70;5.63;;;9.10;99.90;;;;;;5071900;28;20020;-75
2022/11/23 02:58:50;;;;;;;12.75;5.00;;;9.10;99.90;;;;;;5071758;28;20485;-74
2022/11/23 03:01:16;;;;;;;15.93;6.07;;;9.10;99.90;;;;;;5072292;28;20025;-73
2022/11/23 03:03:41;;;;;;;12.60;6.00;;;9.10;99.90;;;;;;5071124;28;20028;-73
2022/11/23 03:06:07;;;;;;;11.52;4.82;;;9.10;99.90;;;;;;5071603;28;20086;-74
2022/11/23 03:08:32;;;;;;;14.40;5.18;;;9.00;99.90;;;;;;5053746;28;20059;-70
2022/11/23 03:11:00;;;;;;;11.10;4.65;;;9.00;99.90;;;;;;5071560;28;20029;-69
2022/11/23 03:13:26;;;;;;;18.50;5.63;;;9.00;99.90;;;;;;5071452;28;20020;-75
2022/11/23 03:15:55;;;;;;;15.43;5.07;;;9.00;99.90;;;;;;5071704;28;20578;-76
2022/11/23 03:18:21;;;;;;;9.98;4.65;;;9.00;99.90;;;;;;5053201;28;20036;-72
2022/11/23 03:20:47;;;;;;;8.75;4.07;;;9.00;99.90;;;;;;5071603;28;20472;-75
2022/11/23 03:23:12;;;;;;;10.75;4.20;;;8.90;99.90;;;;;;5071745;28;20354;-69
2022/11/23 03:25:38;;;;;;;8.45;3.80;;;8.90;99.90;;;;;;5070875;28;20107;-76
2022/11/23 03:28:03;;;;;;;9.98;4.30;;;8.90;99.90;;;;;;5071636;28;20095;-73
2022/11/23 03:30:30;;;;;;;7.10;3.38;;;8.90;99.90;;;;;;5071457;28;20036;-70
2022/11/23 03:32:56;;;;;;;6.47;3.40;;;9.00;99.90;;;;;;5071046;28;20020;-76
2022/11/23 03:35:22;;;;;;;6.90;3.70;;;8.90;99.90;;;;;;5053603;28;20031;-72
2022/11/23 03:37:47;;;;;;;10.63;4.15;;;8.90;99.90;;;;;;5053790;28;20112;-76
2022/11/23 03:40:13;;;;;;;10.82;3.80;;;9.00;99.90;;;;;;5071228;28;20070;-73
2022/11/23 03:42:39;;;;;;;10.00;3.67;;;8.90;99.90;;;;;;5071353;28;20063;-75
2022/11/23 03:45:06;;;;;;;10.15;4.18;;;9.00;99.90;;;;;;5071665;28;20021;-76
2022/11/23 03:47:31;;;;;;;8.55;4.55;;;8.90;99.90;;;;;;5070985;28;20044;-76
2022/11/23 03:49:57;;;;;;;11.20;4.22;;;8.90;99.90;;;;;;5087041;28;20020;-76
2022/11/23 03:52:23;;;;;;;14.75;4.30;;;8.90;99.90;;;;;;5053339;28;20029;-67
2022/11/23 03:54:48;;;;;;;8.65;4.10;;;8.90;99.90;;;;;;5070828;28;20016;-76
2022/11/23 03:57:14;;;;;;;11.20;4.38;;;8.90;99.90;;;;;;5071542;28;20041;-77
2022/11/23 03:59:39;;;;;;;9.65;4.00;;;8.80;99.90;;;;;;5071083;28;20071;-77
2022/11/23 04:02:06;;;;;;;11.23;4.43;;;8.80;99.90;;;;;;5070994;28;20432;-76
2022/11/23 04:04:32;;;;;;;13.13;4.70;;;8.80;99.90;;;;;;5053156;28;20021;-73
2022/11/23 04:06:58;;;;;;;10.10;4.68;;;8.80;99.90;;;;;;5071363;28;20020;-77
2022/11/23 04:09:23;;;;;;;9.77;4.47;;;8.80;99.90;;;;;;5052665;28;20421;-68
2022/11/23 04:11:49;;;;;;;11.35;4.22;;;8.90;99.90;;;;;;5071266;28;20034;-76
2022/11/23 04:14:14;;;;;;;10.50;4.10;;;8.90;99.90;;;;;;5071620;28;20016;-71
2022/11/23 04:16:40;;;;;;;15.27;5.43;;;8.90;99.90;;;;;;5074588;28;20120;-76
2022/11/23 04:19:06;;;;;;;11.40;4.60;;;8.90;99.90;;;;;;5075014;28;20044;-77
2022/11/23 04:21:31;;;;;;;15.20;4.75;;;8.90;99.90;;;;;;5074213;28;20078;-76
2022/11/23 04:23:57;;;;;;;14.35;5.40;;;9.00;99.90;;;;;;5074973;28;20016;-70
2022/11/23 04:26:22;;;;;;;11.80;4.75;;;9.00;99.90;;;;;;5074758;28;20024;-61
2022/11/23 04:28:48;;;;;;;14.02;7.50;;;9.00;99.90;;;;;;5074307;28;20024;-67
2022/11/23 04:31:13;;;;;;;8.68;4.97;;;9.00;99.90;;;;;;5074905;28;20029;-72
2022/11/23 04:33:39;;;;;;;13.82;5.07;;;9.00;99.90;;;;;;5074573;28;20024;-70
2022/11/23 04:36:05;;;;;;;12.32;4.90;;;9.00;99.90;;;;;;5074278;28;20479;-76
2022/11/23 04:38:30;;;;;;;11.27;3.95;;;9.00;99.90;;;;;;5074512;28;20157;-76
2022/11/23 04:40:56;;;;;;;11.05;3.42;;;9.00;99.90;;;;;;5074820;28;20028;-77
2022/11/23 04:43:23;;;;;;;11.93;3.70;;;9.00;99.90;;;;;;5073936;28;20027;-73
2022/11/23 04:45:50;;;;;;;8.48;4.35;;;9.00;99.90;;;;;;5074881;28;20047;-76
2022/11/23 04:48:15;;;;;;;10.10;5.07;;;9.00;99.90;;;;;;5087146;28;20024;-76
2022/11/23 04:50:41;;;;;;;13.38;6.57;;;9.00;99.90;;;;;;5093942;28;20480;-72
2022/11/23 04:53:08;;;;;;;12.93;5.32;;;9.00;99.90;;;;;;5094576;28;20023;-77
2022/11/23 04:55:33;;;;;;;9.95;4.28;;;9.00;99.90;;;;;;5094481;28;20032;-74
2022/11/23 04:57:59;;;;;;;13.10;4.78;;;9.00;99.90;;;;;;5075896;28;20032;-74
2022/11/23 05:00:25;;;;;;;13.18;4.95;;;9.00;99.90;;;;;;5094372;28;20107;-73
2022/11/23 05:02:51;;;;;;;8.68;4.50;;;9.00;99.90;;;;;;5076567;28;20115;-73
2022/11/23 05:05:17;;;;;;;10.50;4.82;;;9.00;99.90;;;;;;5094178;28;20103;-75
2022/11/23 05:07:42;;;;;;;8.30;5.28;;;9.00;99.90;;;;;;5094060;28;20036;-65
2022/11/23 05:10:08;;;;;;;15.35;5.28;;;9.00;99.90;;;;;;5094572;28;20420;-75
2022/11/23 05:12:35;;;;;;;14.80;5.38;;;9.00;99.90;;;;;;5093460;28;20538;-71
2022/11/23 05:15:01;;;;;;;10.68;5.00;;;9.00;99.90;;;;;;5110016;28;20135;-71
2022/11/23 05:17:26;;;;;;;10.05;5.00;;;9.00;99.90;;;;;;5075695;28;20115;-75
2022/11/23 05:19:52;;;;;;;11.90;4.47;;;9.00;99.90;;;;;;5093821;28;20027;-74
2022/11/23 05:22:17;;;;;;;14.18;5.45;;;9.00;99.90;;;;;;5094418;28;20024;-75
2022/11/23 05:24:43;;;;;;;9.68;4.40;;;8.90;99.90;;;;;;5093217;28;20024;-78
2022/11/23 05:27:09;;;;;;;7.13;4.25;;;8.90;99.90;;;;;;5093851;28;20318;-79
2022/11/23 05:29:35;;;;;;;14.07;5.10;;;8.90;99.90;;;;;;5093577;28;20375;-78
2022/11/23 05:32:01;;;;;;;11.52;4.18;;;8.90;99.90;;;;;;5093300;28;20114;-79
2022/11/23 05:34:26;;;;;;;9.13;4.07;;;8.90;99.90;;;;;;5093718;28;20028;-79
2022/11/23 05:36:52;;;;;;;14.70;4.15;;;8.90;99.90;;;;;;5093986;28;20032;-79
2022/11/23 05:39:18;;;;;;;9.90;3.83;;;8.90;99.90;;;;;;5093591;28;20024;-77
2022/11/23 05:41:43;;;;;;;13.85;5.13;;;8.80;99.90;;;;;;5093370;28;20100;-79
2022/11/23 05:44:09;;;;;;;11.82;4.35;;;8.80;99.90;;;;;;5093570;28;20024;-75
2022/11/23 05:46:34;;;;;;;15.77;4.32;;;8.80;99.90;;;;;;5093244;28;20051;-76
2022/11/23 05:49:00;;;;;;;13.98;4.47;;;8.80;99.90;;;;;;5075485;28;20028;-78
2022/11/23 05:51:25;;;;;;;14.13;4.90;;;8.80;99.90;;;;;;5093226;28;20024;-79
2022/11/23 05:53:51;;;;;;;10.07;3.95;;;8.90;99.90;;;;;;5092964;28;20092;-79
2022/11/23 05:56:17;;;;;;;7.75;3.22;;;8.90;99.90;;;;;;5093745;28;20071;-79
2022/11/23 05:58:42;;;;;;;11.80;4.25;;;8.90;99.90;;;;;;5093109;28;20028;-69
2022/11/23 06:01:08;;;;;;;14.52;4.13;;;8.90;99.90;;;;;;5092932;28;20535;-79
2022/11/23 06:03:33;;;;;;;10.27;3.80;;;8.90;99.90;;;;;;5093174;28;20467;-79
2022/11/23 06:05:59;;;;;;;12.88;4.95;;;8.90;99.90;;;;;;5093510;28;20472;-79
2022/11/23 06:08:24;;;;;;;11.77;4.63;;;8.90;99.90;;;;;;5092486;28;20573;-77
2022/11/23 06:10:50;;;;;;;11.27;4.53;;;8.90;99.90;;;;;;5091000;28;20532;-80
2022/11/23 06:13:17;;;;;;;12.32;4.85;;;8.90;99.90;;;;;;5099954;28;20026;-68
2022/11/23 06:15:42;;;;;;;13.98;4.65;;;8.90;99.90;;;;;;5090828;28;20692;-64
2022/11/23 06:18:08;;;;;;;16.63;4.40;;;8.90;99.90;;;;;;5075531;28;20115;-79
2022/11/23 06:20:34;;;;;;;10.82;4.40;;;8.90;99.90;;;;;;5074364;28;20415;-79
2022/11/23 06:23:00;;;;;;;9.55;4.55;;;8.90;99.90;;;;;;5092238;28;20053;-81
2022/11/23 06:25:26;;;;;;;10.45;4.03;;;8.90;99.90;;;;;;5092559;28;20389;-75
2022/11/23 06:27:56;;;;;;;11.75;3.97;;;8.90;99.90;;;;;;5093048;28;20116;-78
2022/11/23 06:30:23;;;;;;;11.82;3.75;;;8.90;99.90;;;;;;5074772;28;20040;-77
2022/11/23 06:32:48;;;;;;;9.02;3.20;;;8.80;99.90;;;;;;5074219;28;20028;-78
2022/11/23 06:35:14;;;;;;;10.68;3.53;;;8.90;99.90;;;;;;5092358;28;20697;-79
2022/11/23 06:37:40;;;;;;;12.45;3.42;;;8.90;99.90;;;;;;5091625;28;20104;-79
2022/11/23 06:40:06;;;;;;;7.80;3.00;;;8.80;99.90;;;;;;5092532;28;20127;-79
2022/11/23 06:42:31;;;;;;;11.70;3.45;;;8.80;99.90;;;;;;5091653;28;20475;-78
2022/11/23 06:44:57;;;;;;;11.88;4.22;;;8.80;99.90;;;;;;5092805;28;20020;-77
2022/11/23 06:47:22;;;;;;;7.57;3.30;;;8.70;99.90;;;;;;5074225;28;20024;-68
2022/11/23 06:49:48;;;;;;;8.52;3.55;;;8.60;99.90;;;;;;5086098;28;20059;-79
2022/11/23 06:52:14;;;;;;;10.90;3.67;;;8.50;99.90;;;;;;5113273;28;20024;-78
2022/11/23 06:54:39;;;;;;;16.65;4.57;;;8.40;99.90;;;;;;5102533;28;20046;-68
2022/11/23 06:57:08;;;;;;;9.43;3.30;;;8.40;99.90;;;;;;5073602;28;20540;-79
2022/11/23 06:59:34;;;;;;;12.57;3.47;;;8.30;99.90;;;;;;5103766;28;20459;-78
2022/11/23 07:01:59;;;;;;;9.00;3.35;;;8.30;99.90;;;;;;5112643;28;20036;-79
2022/11/23 07:04:25;;;;;;;11.50;3.40;;;8.40;99.90;;;;;;5111997;28;20020;-78
2022/11/23 07:06:51;;;;;;;12.38;4.07;;;8.40;99.90;;;;;;5094471;28;20115;-76
2022/11/23 07:09:16;;;;;;;16.00;5.00;;;8.50;99.90;;;;;;5111298;28;20015;-78
2022/11/23 07:11:42;;;;;;;11.10;3.95;;;8.50;99.90;;;;;;5111686;28;20451;-77
2022/11/23 07:14:08;;;;;;;18.67;4.50;;;8.60;99.90;;;;;;5094498;28;20031;-79
2022/11/23 07:16:33;;;;;;;17.08;3.97;;;8.60;99.90;;;;;;5112114;28;20043;-78
2022/11/23 07:18:59;;;;;;;10.77;4.05;;;8.70;99.90;;;;;;5091410;28;20031;-77
2022/11/23 07:21:25;;;;;;;14.13;3.58;;;8.70;99.90;;;;;;5112222;28;20031;-73
2022/11/23 07:23:50;;;;;;;9.90;3.40;;;8.70;99.90;;;;;;5111256;28;20023;-77
2022/11/23 07:26:16;;;;;;;13.75;3.90;;;8.70;99.90;;;;;;5112169;28;20379;-80
2022/11/23 07:28:41;;;;;;;8.60;3.65;;;8.70;99.90;;;;;;5092395;28;20088;-77
2022/11/23 07:31:07;;;;;;;14.27;3.67;;;8.70;99.90;;;;;;5090733;28;20539;-75
2022/11/23 07:33:33;;;;;;;14.82;4.70;;;8.70;99.90;;;;;;5093147;28;20089;-76
2022/11/23 07:36:02;;;;;;;11.85;4.50;;;8.70;99.90;;;;;;5110450;28;20020;-78
2022/11/23 07:38:28;;;;;;;14.73;4.20;;;8.70;99.90;;;;;;5111393;28;20093;-78
2022/11/23 07:40:54;;;;;;;16.05;3.67;;;8.70;99.90;;;;;;5110471;28;20030;-77
2022/11/23 07:43:19;;;;;;;15.80;3.90;;;8.70;99.90;;;;;;5112205;28;20024;-77
2022/11/23 07:45:45;;;;;;;14.18;3.97;;;8.70;99.90;;;;;;5102280;28;20106;-77
2022/11/23 07:48:11;;;;;;;17.27;5.25;;;8.70;99.90;;;;;;5090061;28;20024;-78
2022/11/23 07:50:38;;;;;;;9.00;3.38;;;8.70;99.90;;;;;;5116155;28;20012;-78
2022/11/23 07:53:05;;;;;;;10.60;3.33;;;8.70;99.90;;;;;;5117119;27;20060;-78
2022/11/23 07:55:32;;;;;;;15.70;3.72;;;8.70;99.90;;;;;;5088792;28;20023;-77
2022/11/23 07:57:57;;;;;;;15.13;3.78;;;8.70;99.90;;;;;;5102313;28;20481;-76
2022/11/23 08:00:25;;;;;;;19.30;3.88;;;8.70;99.90;;;;;;5095056;28;20036;-67
2022/11/23 08:02:50;;;;;;;11.60;4.22;;;8.80;99.90;;;;;;5095938;28;20027;-78
2022/11/23 08:05:16;;;;;;;13.68;4.10;;;8.80;99.90;;;;;;5100135;28;20356;-79
2022/11/23 08:07:44;;;;;;;10.15;3.60;;;8.80;99.90;;;;;;5112495;28;20139;-79
2022/11/23 08:10:11;;;;;;;11.65;3.28;;;8.80;99.90;;;;;;5115991;28;20011;-79
2022/11/23 08:12:37;;;;;;;15.57;3.78;;;8.80;99.90;;;;;;5115526;28;20102;-79
2022/11/23 08:15:03;;;;;;;7.63;2.92;;;8.80;99.90;;;;;;5105081;28;20123;-78
2022/11/23 08:17:28;;;;;;;10.85;2.72;;;8.90;99.90;;;;;;5107542;28;20031;-78
2022/11/23 08:19:54;;;;;;;8.55;2.90;;;8.90;99.90;;;;;;5114476;28;20023;-72
2022/11/23 08:22:20;;;;;;;11.77;3.15;;;8.90;99.90;;;;;;5108716;28;20023;-78
2022/11/23 08:24:46;;;;;;;13.50;2.80;;;8.90;99.90;;;;;;5106027;28;20023;-73
2022/11/23 08:27:12;;;;;;;8.50;3.30;;;8.90;99.90;;;;;;5115460;28;20111;-78
2022/11/23 08:29:38;;;;;;;13.38;3.38;;;8.90;99.90;;;;;;5097145;28;20039;-76
2022/11/23 08:32:04;;;;;;;9.98;3.20;;;8.90;99.90;;;;;;5103928;28;20514;-78
2022/11/23 08:34:29;;;;;;;13.27;3.10;;;8.90;99.90;;;;;;5115032;28;20019;-72
2022/11/23 08:36:55;;;;;;;11.05;3.65;;;8.90;99.90;;;;;;5115282;28;20474;-79
2022/11/23 08:39:21;;;;;;;17.25;3.03;;;8.90;99.90;;;;;;5101743;28;20035;-78
2022/11/23 08:41:47;;;;;;;13.35;3.08;;;8.90;99.90;;;;;;5085317;28;20024;-76
2022/11/23 08:44:14;;;;;;;12.07;4.43;;;9.00;99.90;;;;;;5092644;28;20030;-77
2022/11/23 08:46:39;;;;;;;12.02;5.50;;;9.00;99.90;;;;;;5092041;28;20062;-74
2022/11/23 08:49:06;;;;;;;14.18;5.13;;;9.00;99.90;;;;;;5060364;28;20052;-74
2022/11/23 08:51:31;;;;;;;19.95;5.53;;;9.00;99.90;;;;;;5097100;28;20032;-77
2022/11/23 08:53:57;;;;;;;10.20;4.35;;;9.00;99.90;;;;;;5110817;28;20024;-77
2022/11/23 08:56:23;;;;;;;12.68;4.53;;;9.10;99.90;;;;;;5113431;28;20034;-72
2022/11/23 08:58:48;;;;;;;15.65;3.72;;;9.10;99.90;;;;;;5112235;28;20112;-77
2022/11/23 09:01:15;;;;;;;10.35;3.55;;;9.20;99.90;;;;;;5112952;28;20075;-79
2022/11/23 09:03:41;;;;;;;12.30;3.40;;;9.30;99.90;;;;;;5104598;28;20024;-79
2022/11/23 09:06:07;;;;;;;8.95;2.88;;;9.30;99.90;;;;;;5114291;28;20420;-78
2022/11/23 09:08:34;;;;;;;16.33;5.07;;;9.30;99.90;;;;;;5113540;28;20047;-74
2022/11/23 09:11:00;;;;;;;11.00;4.05;;;9.40;99.90;;;;;;5112956;28;20104;-72
2022/11/23 09:13:27;;;;;;;12.13;3.20;;;9.40;99.90;;;;;;5093003;28;20103;-72
2022/11/23 09:15:59;;;;;;;11.60;3.05;;;9.40;99.90;;;;;;5113724;28;20530;-75
2022/11/23 09:18:27;;;;;;;8.00;2.75;;;9.50;99.90;;;;;;5112404;28;20028;-72
2022/11/23 09:20:53;;;;;;;7.93;3.00;;;9.50;99.90;;;;;;5095185;28;20053;-71
2022/11/23 09:23:18;;;;;;;12.48;3.80;;;9.50;99.90;;;;;;5111602;28;20472;-71
2022/11/23 09:25:47;;;;;;;10.80;3.17;;;9.40;99.90;;;;;;5112874;28;20031;-73
2022/11/23 09:28:13;;;;;;;12.68;3.15;;;9.30;99.90;;;;;;5109987;28;20020;-79
2022/11/23 09:30:40;;;;;;;11.70;2.38;;;9.30;99.90;;;;;;5113370;28;20023;-65
2022/11/23 09:33:07;;;;;;;11.73;2.70;;;9.20;99.90;;;;;;5111415;28;20051;-71
2022/11/23 09:35:33;;;;;;;12.30;2.95;;;9.10;99.90;;;;;;5112854;28;20023;-72
2022/11/23 09:37:58;;;;;;;11.35;3.20;;;9.10;99.90;;;;;;5112822;28;20036;-74
2022/11/23 09:40:29;;;;;;;12.95;3.58;;;9.00;99.90;;;;;;5113053;28;20019;-71
2022/11/23 09:43:15;;;;;;;10.05;2.80;;;9.00;99.90;;;;;;5107783;28;20115;-74
2022/11/23 09:45:49;;;;;;;9.38;3.33;;;9.00;99.90;;;;;;5111562;28;20039;-72
2022/11/23 09:48:29;;;;;;;7.60;2.50;;;9.00;99.90;;;;;;5110229;28;20034;-75
2022/11/23 09:51:18;;;;;;;6.70;2.77;;;8.90;99.90;;;;;;5093026;28;20498;-75
2022/11/23 09:53:46;;;;;;;7.15;2.50;;;8.90;99.90;;;;;;5111600;28;20270;-74
2022/11/23 09:56:25;;;;;;;14.82;2.97;;;8.90;99.90;;;;;;5113201;28;20024;-73
2022/11/23 09:58:55;;;;;;;7.80;2.30;;;8.90;99.90;;;;;;5091924;28;20020;-75
2022/11/23 10:01:21;;;;;;;13.63;2.90;;;8.90;99.90;;;;;;5086526;28;20494;-73
2022/11/23 10:03:47;;;;;;;9.63;3.00;;;8.90;99.90;;;;;;5091717;28;20024;-74
2022/11/23 10:06:20;;;;;;;15.98;2.50;;;8.90;99.90;;;;;;5091371;28;20028;-72
2022/11/23 10:08:58;;;;;;;10.40;2.72;;;8.90;99.90;;;;;;5071475;28;20043;-74
2022/11/23 10:11:54;;;;;;;10.38;2.85;;;8.90;99.90;;;;;;5075741;28;20023;-65
2022/11/23 10:14:52;;;;;;;5.95;2.60;;;8.90;99.90;;;;;;5110002;28;20360;-72
2022/11/23 10:17:50;;;;;;;9.32;3.10;;;9.00;99.90;;;;;;5082449;28;20524;-73
2022/11/23 10:20:34;;;;;;;10.00;3.08;;;9.00;99.90;;;;;;5111911;28;20016;-69
2022/11/23 10:23:01;;;;;;;11.45;3.10;;;9.00;99.90;;;;;;5092162;28;20031;-71
2022/11/23 10:25:44;;;;;;;10.27;3.40;;;9.00;99.90;;;;;;5093717;28;20054;-67
2022/11/23 10:28:17;;;;;;;12.73;2.45;;;9.10;99.90;;;;;;5104264;28;20103;-69
2022/11/23 10:30:47;;;;;;;10.20;2.78;;;9.00;99.90;;;;;;5111849;28;20847;-65
2022/11/23 10:33:28;;;;;;;9.20;2.42;;;9.10;99.90;;;;;;5109695;28;20102;-73
2022/11/23 10:35:54;;;;;;;12.38;2.75;;;9.10;99.90;;;;;;5093424;28;20447;-75
2022/11/23 10:38:21;;;;;;;9.35;3.30;;;9.10;99.90;;;;;;5112223;28;20051;-72
2022/11/23 10:40:52;;;;;;;11.45;2.45;;;9.10;99.90;;;;;;5099473;28;20024;-73
2022/11/23 10:43:24;;;;;;;11.77;2.30;;;9.10;99.90;;;;;;5094398;28;20677;-71
2022/11/23 10:45:49;;;;;;;;;;;9.10;99.90;;;;;;5083884;28;20038;-75
2022/11/23 10:48:43;;;;;;;6.68;2.08;;;9.10;99.90;;;;;;5092854;28;20356;-73
2022/11/23 10:51:31;;;;;;;9.45;2.83;;;9.10;99.90;;;;;;5099069;28;20036;-73
2022/11/23 10:54:05;;;;;;;9.38;2.13;;;9.10;99.90;;;;;;5091674;28;20476;-74
2022/11/23 10:56:33;;;;;;;7.85;2.50;;;9.10;99.90;;;;;;5093716;28;20054;-70
2022/11/23 10:58:58;;;;;;;6.30;2.67;;;9.10;99.90;;;;;;5098892;28;20473;-78
2022/11/23 11:01:28;;;;;;;4.93;1.98;;;9.10;99.90;;;;;;5091703;28;20077;-74
2022/11/23 11:03:55;;;;;;;7.72;1.98;;;9.20;99.90;;;;;;5091754;28;20016;-71
2022/11/23 11:06:27;;;;;;;9.75;2.88;;;9.20;99.90;;;;;;5098410;28;20012;-79
2022/11/23 11:09:00;;;;;;;6.47;2.05;;;9.20;99.90;;;;;;5092293;28;20028;-75
2022/11/23 11:11:28;;;;;;;7.10;1.92;;;9.20;99.90;;;;;;5094827;28;20063;-77
2022/11/23 11:14:04;;;;;;;6.57;1.73;;;9.20;99.90;;;;;;5108696;28;20027;-74
2022/11/23 11:16:35;;;;;;;7.55;1.95;;;9.20;99.90;;;;;;5086584;28;20491;-77
2022/11/23 11:19:26;;;;;;;6.72;2.08;;;9.20;99.90;;;;;;5089755;28;20093;-70
2022/11/23 11:21:51;;;;;;;12.27;3.13;;;9.20;99.90;;;;;;5091134;28;20027;-74
2022/11/23 11:24:28;;;;;;;9.40;2.50;;;9.20;99.90;;;;;;5072517;28;20020;-75
2022/11/23 11:27:00;;;;;;;8.43;2.30;;;9.20;99.90;;;;;;5091703;28;20476;-75
2022/11/23 11:29:33;;;;;;;6.30;1.80;;;9.20;99.90;;;;;;5090819;28;20030;-70
2022/11/23 11:32:27;;;;;;;8.32;1.98;;;9.30;99.90;;;;;;5108261;28;20531;-72
2022/11/23 11:35:01;;;;;;;8.60;2.38;;;9.30;99.90;;;;;;5110069;28;20148;-77
2022/11/23 11:37:36;;;;;;;4.90;1.75;;;9.30;99.90;;;;;;5095009;28;20028;-75
2022/11/23 11:40:20;;;;;;;7.63;2.33;;;9.30;99.90;;;;;;5088635;28;20035;-75
2022/11/23 11:43:21;;;;;;;8.02;1.85;;;9.40;99.90;;;;;;5092649;28;20028;-77
2022/11/23 11:45:50;;;;;;;10.55;2.15;;;9.40;99.90;;;;;;5110459;28;20023;-77
2022/11/23 11:48:35;;;;;;;7.18;2.22;;;9.40;99.90;;;;;;5093169;28;20020;-76
2022/11/23 11:51:20;;;;;;;4.00;1.50;;;9.40;99.90;;;;;;5110381;28;20030;-77
2022/11/23 11:54:20;;;;;;;5.63;1.80;;;9.50;99.90;;;;;;5090734;28;20032;-76
2022/11/23 11:56:49;;;;;;;4.45;1.60;;;9.50;99.90;;;;;;5105357;28;20054;-75
2022/11/23 11:59:48;;;;;;;6.50;1.83;;;9.50;99.90;;;;;;5111010;28;20023;-72
2022/11/23 12:02:49;;;;;;;6.03;1.70;;;9.50;99.90;;;;;;5058747;28;20040;-76
2022/11/23 12:05:25;;;;;;;6.95;2.08;;;9.60;99.90;;;;;;5086313;28;20079;-75
2022/11/23 12:08:12;;;;;;;4.78;1.48;;;9.60;99.90;;;;;;5072802;28;20061;-76
2022/11/23 12:10:50;;;;;;;5.53;1.40;;;9.60;99.90;;;;;;5100950;28;20073;-74
2022/11/23 12:13:20;;;;;;;6.60;1.48;;;9.70;99.90;;;;;;5089552;28;20425;-77
2022/11/23 12:15:51;;;;;;;8.23;2.08;;;9.70;99.90;;;;;;5090629;28;20048;-77
2022/11/23 12:18:24;;;;;;;7.35;1.48;;;9.70;99.90;;;;;;5072188;28;20036;-76
2022/11/23 12:21:04;;;;;;;6.40;3.22;;;9.70;99.90;;;;;;5079410;28;20020;-77
2022/11/23 12:23:51;;;;;;;6.18;2.22;;;9.80;99.90;;;;;;5071843;28;20028;-73
2022/11/23 12:26:25;;;;;;;6.05;2.00;;;9.80;99.90;;;;;;5072725;28;20032;-72
2022/11/23 12:29:17;;;;;;;5.72;1.92;;;9.90;99.80;;;;;;5101942;28;20024;-77
2022/11/23 12:31:58;;;;;;;4.13;1.35;;;9.90;99.60;;;;;;5081534;28;20124;-77
2022/11/23 12:34:49;;;;;;;8.70;1.85;;;10.00;99.30;;;;;;5110993;28;20043;-67
2022/11/23 12:37:38;;;;;;;2.88;1.35;;;10.20;99.30;;;;;;5057244;28;20048;-76
2022/11/23 12:40:47;;;;;;;4.70;1.85;;;10.40;99.00;;;;;;5114302;28;20419;-73
2022/11/23 12:43:52;;;;;;;6.43;1.48;;;10.60;98.60;;;;;;4986136;28;20057;-77
2022/11/23 12:47:14;;;;;;;5.20;1.50;;;10.70;98.00;;;;;;5070841;28;20044;-78
2022/11/23 12:49:52;;;;;;;4.07;1.55;;;10.70;97.50;;;;;;4991833;28;20034;-78
2022/11/23 12:52:36;;;;;;;5.57;1.77;;;10.70;97.60;;;;;;4996504;28;20029;-77
2022/11/23 12:55:28;;;;;;;7.10;1.92;;;10.60;97.60;;;;;;5062739;28;20041;-74
2022/11/23 12:58:10;;;;;;;8.38;1.70;;;10.50;97.70;;;;;;5113381;28;20059;-77
2022/11/23 13:00:56;;;;;;;7.43;1.42;;;10.50;98.00;;;;;;5108718;28;20026;-73
2022/11/23 13:03:51;;;;;;;6.47;1.80;;;10.40;98.10;;;;;;5109713;28;20035;-67